Time;durP1;ratioP1;P1;durP2;ratioP2;P2;SDS_P1;SDS_P2;PMS_P1;PMS_P2;Temp;Humidity;BMP_temperature;BMP_pressure;BME280_temperature;BME280_humidity;BME280_pressure;Samples;Min_cycle;Max_cycle;Signal;HPM_P1;HPM_P2
2024/01/05 00:01:48;;;;;;;7.90;6.17;;;10.40;99.90;;;;;;4879229;29;20182;-71
2024/01/05 00:04:14;;;;;;;5.80;5.40;;;10.30;99.90;;;;;;4876199;29;20253;-71
2024/01/05 00:06:40;;;;;;;6.40;5.80;;;10.40;99.90;;;;;;4880537;29;20458;-72
2024/01/05 00:09:06;;;;;;;10.03;5.27;;;10.40;99.90;;;;;;4870673;29;20423;-70
2024/01/05 00:11:32;;;;;;;6.30;5.20;;;10.50;99.90;;;;;;4895857;29;20570;-71
2024/01/05 00:13:58;;;;;;;6.60;5.47;;;10.60;99.90;;;;;;4861309;29;20180;-71
2024/01/05 00:16:24;;;;;;;5.17;4.70;;;10.50;99.90;;;;;;4877825;29;20475;-70
2024/01/05 00:18:50;;;;;;;6.90;5.30;;;10.60;99.90;;;;;;4878533;29;20552;-71
2024/01/05 00:21:23;;;;;;;5.70;5.00;;;10.40;99.90;;;;;;4845677;29;20826;-70
2024/01/05 00:23:50;;;;;;;8.13;4.67;;;10.40;99.90;;;;;;4878504;29;20432;-71
2024/01/05 00:26:16;;;;;;;6.47;5.10;;;10.50;99.90;;;;;;4888581;29;20909;-71
2024/01/05 00:28:43;;;;;;;7.87;4.80;;;10.50;99.90;;;;;;4878665;29;20419;-71
2024/01/05 00:31:10;;;;;;;5.33;4.90;;;10.50;99.90;;;;;;4864388;29;20443;-71
2024/01/05 00:33:37;;;;;;;5.00;4.60;;;10.60;99.90;;;;;;4886064;29;20455;-71
2024/01/05 00:36:07;;;;;;;5.93;5.33;;;10.60;99.90;;;;;;4875938;29;20472;-70
2024/01/05 00:38:33;;;;;;;6.40;4.20;;;10.50;99.90;;;;;;4894823;29;20482;-71
2024/01/05 00:40:59;;;;;;;6.10;3.80;;;10.60;99.90;;;;;;4895448;29;20438;-71
2024/01/05 00:43:25;;;;;;;4.50;4.10;;;10.50;99.90;;;;;;4862359;29;20445;-71
2024/01/05 00:45:51;;;;;;;5.33;4.30;;;10.50;99.90;;;;;;4895156;29;20475;-71
2024/01/05 00:48:16;;;;;;;4.47;4.00;;;10.60;99.90;;;;;;4879876;29;20749;-70
2024/01/05 00:50:42;;;;;;;6.70;4.13;;;10.60;99.90;;;;;;4865146;29;20175;-71
2024/01/05 00:53:08;;;;;;;10.83;4.43;;;10.60;99.90;;;;;;4882734;29;20199;-71
2024/01/05 00:55:34;;;;;;;4.73;4.30;;;10.60;99.90;;;;;;4880721;29;20326;-71
2024/01/05 00:58:00;;;;;;;5.07;3.70;;;10.40;99.90;;;;;;4899985;29;20533;-70
2024/01/05 01:00:25;;;;;;;6.53;4.20;;;10.50;99.90;;;;;;4874196;29;20429;-70
2024/01/05 01:02:52;;;;;;;8.40;5.23;;;10.40;99.90;;;;;;4883343;29;20587;-71
2024/01/05 01:05:18;;;;;;;9.23;4.57;;;10.40;99.90;;;;;;4880671;29;20522;-70
2024/01/05 01:07:44;;;;;;;4.73;4.20;;;10.40;99.90;;;;;;4895957;29;20438;-72
2024/01/05 01:10:11;;;;;;;8.93;4.90;;;10.50;99.90;;;;;;4860250;29;20481;-71
2024/01/05 01:12:36;;;;;;;5.60;4.10;;;10.40;99.90;;;;;;4881355;29;20204;-70
2024/01/05 01:15:02;;;;;;;6.50;4.33;;;10.20;99.90;;;;;;4881519;29;20521;-71
2024/01/05 01:17:31;;;;;;;5.37;4.27;;;10.30;99.90;;;;;;4881242;29;20423;-72
2024/01/05 01:19:57;;;;;;;6.40;4.23;;;10.40;99.90;;;;;;4865609;29;20429;-71
2024/01/05 01:22:23;;;;;;;10.27;6.07;;;10.50;99.90;;;;;;4886019;29;20432;-70
2024/01/05 01:24:48;;;;;;;5.90;5.00;;;10.60;99.90;;;;;;4887474;29;20229;-70
2024/01/05 01:27:15;;;;;;;5.20;4.37;;;10.60;99.90;;;;;;4891511;29;20191;-63
2024/01/05 01:29:41;;;;;;;4.73;4.20;;;10.60;99.90;;;;;;4881107;29;20212;-71
2024/01/05 01:32:09;;;;;;;5.10;3.90;;;10.50;99.90;;;;;;4893056;29;20435;-70
2024/01/05 01:34:36;;;;;;;8.43;4.40;;;10.60;99.90;;;;;;4880118;29;21237;-70
2024/01/05 01:37:02;;;;;;;6.47;3.60;;;10.70;99.90;;;;;;4866695;29;20436;-70
2024/01/05 01:39:28;;;;;;;6.97;3.67;;;10.70;99.90;;;;;;4892335;29;20521;-70
2024/01/05 01:41:54;;;;;;;6.90;4.10;;;10.80;99.90;;;;;;4898007;29;20438;-72
2024/01/05 01:44:20;;;;;;;8.60;4.60;;;10.80;99.90;;;;;;4883885;29;20439;-70
2024/01/05 01:46:46;;;;;;;4.63;3.83;;;10.80;99.90;;;;;;4880725;29;20409;-71
2024/01/05 01:49:12;;;;;;;9.20;4.03;;;10.90;99.90;;;;;;4891646;29;20313;-71
2024/01/05 01:51:39;;;;;;;3.50;3.30;;;10.90;99.90;;;;;;4893754;29;20198;-71
2024/01/05 01:54:05;;;;;;;9.60;3.30;;;10.70;99.90;;;;;;4898414;29;20206;-70
2024/01/05 01:56:34;;;;;;;9.87;4.53;;;10.70;99.90;;;;;;4897873;29;20463;-71
2024/01/05 01:59:00;;;;;;;6.83;3.77;;;10.80;99.90;;;;;;4894508;29;20487;-71
2024/01/05 02:01:26;;;;;;;6.07;4.03;;;10.70;99.90;;;;;;4880292;29;20435;-69
2024/01/05 02:03:53;;;;;;;10.37;5.00;;;10.50;99.90;;;;;;4882661;29;20761;-70
2024/01/05 02:06:20;;;;;;;10.87;7.30;;;10.40;99.90;;;;;;4880214;29;20435;-64
2024/01/05 02:08:46;;;;;;;6.80;4.50;;;10.50;99.90;;;;;;4881442;29;20425;-67
2024/01/05 02:11:13;;;;;;;5.17;4.60;;;10.60;99.90;;;;;;4881177;29;20441;-72
2024/01/05 02:13:39;;;;;;;6.37;3.40;;;10.70;99.90;;;;;;4888953;29;20517;-72
2024/01/05 02:16:05;;;;;;;4.10;3.73;;;10.70;99.90;;;;;;4886203;29;20468;-72
2024/01/05 02:18:31;;;;;;;5.50;3.83;;;10.60;99.90;;;;;;4880911;29;20444;-71
2024/01/05 02:21:00;;;;;;;6.83;3.67;;;10.70;99.90;;;;;;4897728;29;20463;-67
2024/01/05 02:23:27;;;;;;;6.90;4.40;;;10.70;99.90;;;;;;4873322;29;20609;-70
2024/01/05 02:25:56;;;;;;;5.77;3.87;;;10.80;99.90;;;;;;4886716;29;20445;-72
2024/01/05 02:28:22;;;;;;;5.40;3.93;;;10.80;99.90;;;;;;4883901;29;20425;-65
2024/01/05 02:30:48;;;;;;;4.40;4.03;;;10.70;99.90;;;;;;4880324;29;20782;-72
2024/01/05 02:33:14;;;;;;;4.13;3.83;;;10.80;99.90;;;;;;4891540;29;20495;-72
2024/01/05 02:35:40;;;;;;;4.53;4.13;;;10.80;99.90;;;;;;4890143;29;20461;-72
2024/01/05 02:38:06;;;;;;;5.43;4.00;;;10.80;99.90;;;;;;4895617;29;20419;-72
2024/01/05 02:40:33;;;;;;;5.67;3.40;;;10.80;99.90;;;;;;4895157;29;20925;-71
2024/01/05 02:42:58;;;;;;;5.67;4.60;;;10.70;99.90;;;;;;4897979;29;20430;-72
2024/01/05 02:45:24;;;;;;;5.40;4.20;;;10.80;99.90;;;;;;4895519;29;20437;-71
2024/01/05 02:47:51;;;;;;;5.30;4.00;;;10.80;99.90;;;;;;4874508;29;20221;-72
2024/01/05 02:50:18;;;;;;;4.10;3.80;;;10.80;99.90;;;;;;4890891;29;20188;-72
2024/01/05 02:52:44;;;;;;;5.27;4.43;;;10.90;99.90;;;;;;4888844;29;20441;-71
2024/01/05 02:55:10;;;;;;;7.17;4.10;;;10.90;99.90;;;;;;4893285;29;20521;-72
2024/01/05 02:57:37;;;;;;;5.13;4.47;;;10.90;99.90;;;;;;4896982;29;20437;-71
2024/01/05 03:00:03;;;;;;;4.33;4.03;;;10.90;99.90;;;;;;4881181;29;20446;-72
2024/01/05 03:02:30;;;;;;;6.93;4.10;;;10.80;99.90;;;;;;4895551;29;20428;-71
2024/01/05 03:04:56;;;;;;;7.53;4.87;;;10.80;99.90;;;;;;4880698;29;20486;-72
2024/01/05 03:07:22;;;;;;;8.63;5.13;;;10.70;99.90;;;;;;4897744;29;20413;-64
2024/01/05 03:09:47;;;;;;;9.90;4.53;;;10.70;99.90;;;;;;4894912;29;20430;-71
2024/01/05 03:12:13;;;;;;;7.23;3.93;;;10.80;99.90;;;;;;4893205;29;20195;-67
2024/01/05 03:14:39;;;;;;;4.40;4.10;;;10.80;99.90;;;;;;4878635;29;20202;-71
2024/01/05 03:17:05;;;;;;;4.57;3.53;;;10.80;99.90;;;;;;4892299;29;20715;-71
2024/01/05 03:19:31;;;;;;;3.80;3.50;;;10.70;99.90;;;;;;4890448;29;20185;-72
2024/01/05 03:21:57;;;;;;;7.73;4.37;;;10.80;99.90;;;;;;4879263;29;20431;-72
2024/01/05 03:24:23;;;;;;;5.80;5.00;;;10.80;99.90;;;;;;4893354;29;20187;-64
2024/01/05 03:26:49;;;;;;;9.33;4.10;;;10.80;99.90;;;;;;4887821;29;20193;-71
2024/01/05 03:29:14;;;;;;;5.40;4.30;;;10.70;99.90;;;;;;4881537;29;20661;-71
2024/01/05 03:31:43;;;;;;;5.63;3.63;;;10.50;99.90;;;;;;4891388;29;20436;-70
2024/01/05 03:34:09;;;;;;;4.70;4.27;;;10.50;99.90;;;;;;4889060;29;20462;-71
2024/01/05 03:36:35;;;;;;;5.30;4.00;;;10.50;99.90;;;;;;4880814;29;20503;-70
2024/01/05 03:39:01;;;;;;;4.17;3.83;;;10.50;99.90;;;;;;4885557;29;20216;-71
2024/01/05 03:41:27;;;;;;;4.33;4.03;;;10.60;99.90;;;;;;4899233;29;20182;-64
2024/01/05 03:43:53;;;;;;;7.10;4.07;;;10.60;99.90;;;;;;4881406;29;20179;-71
2024/01/05 03:46:18;;;;;;;6.13;5.13;;;10.70;99.90;;;;;;4847729;29;20434;-71
2024/01/05 03:48:44;;;;;;;6.30;4.40;;;10.60;99.90;;;;;;4892483;29;20432;-71
2024/01/05 03:51:10;;;;;;;7.77;4.80;;;10.50;99.90;;;;;;4892566;29;20317;-71
2024/01/05 03:53:36;;;;;;;10.67;4.83;;;10.50;99.90;;;;;;4878073;29;20185;-70
2024/01/05 03:56:02;;;;;;;5.27;4.80;;;10.60;99.90;;;;;;4878436;29;20244;-71
2024/01/05 03:58:28;;;;;;;4.27;3.83;;;10.60;99.90;;;;;;4881066;29;20656;-70
2024/01/05 04:00:54;;;;;;;5.10;4.70;;;10.50;99.90;;;;;;4881568;29;20479;-70
2024/01/05 04:03:20;;;;;;;5.60;4.60;;;10.50;99.90;;;;;;4879428;29;20185;-69
2024/01/05 04:05:46;;;;;;;5.80;4.27;;;10.50;99.90;;;;;;4894551;29;20430;-71
2024/01/05 04:08:12;;;;;;;4.47;4.07;;;10.60;99.90;;;;;;4896455;29;20183;-70
2024/01/05 04:10:38;;;;;;;4.37;4.00;;;10.50;99.90;;;;;;4881238;29;20632;-71
2024/01/05 04:13:05;;;;;;;4.80;4.10;;;10.60;99.90;;;;;;4895650;29;20449;-72
2024/01/05 04:15:40;;;;;;;4.87;4.43;;;10.50;99.90;;;;;;4894114;29;20455;-70
2024/01/05 04:18:06;;;;;;;4.73;4.23;;;10.60;99.90;;;;;;4892759;29;20435;-69
2024/01/05 04:20:32;;;;;;;6.17;5.57;;;10.60;99.90;;;;;;4888549;29;20426;-71
2024/01/05 04:22:59;;;;;;;4.50;4.20;;;10.60;99.90;;;;;;4897153;29;21022;-72
2024/01/05 04:25:25;;;;;;;5.60;3.97;;;10.60;99.90;;;;;;4889745;29;20490;-64
2024/01/05 04:27:52;;;;;;;4.23;3.93;;;10.70;99.90;;;;;;4874750;29;20897;-71
2024/01/05 04:30:20;;;;;;;4.40;4.00;;;10.70;99.90;;;;;;4892851;29;20438;-72
2024/01/05 04:32:46;;;;;;;5.57;5.10;;;10.70;99.90;;;;;;4881390;29;21064;-72
2024/01/05 04:35:12;;;;;;;9.50;5.00;;;10.70;99.90;;;;;;4896232;29;20805;-71
2024/01/05 04:37:38;;;;;;;5.63;4.30;;;10.50;99.90;;;;;;4883109;29;20424;-71
2024/01/05 04:40:06;;;;;;;6.40;5.17;;;10.60;99.90;;;;;;4897281;29;20434;-72
2024/01/05 04:42:32;;;;;;;5.10;4.70;;;10.60;99.90;;;;;;4898451;29;20202;-67
2024/01/05 04:44:58;;;;;;;5.63;4.93;;;10.30;99.90;;;;;;4894248;29;20828;-67
2024/01/05 04:47:24;;;;;;;4.30;3.90;;;10.20;99.90;;;;;;4886829;29;20448;-67
2024/01/05 04:49:49;;;;;;;5.60;4.40;;;10.30;99.90;;;;;;4891329;29;20180;-67
2024/01/05 04:52:22;;;;;;;8.33;4.97;;;10.20;99.90;;;;;;4899761;29;20445;-68
2024/01/05 04:54:47;;;;;;;4.53;3.70;;;10.00;99.90;;;;;;4899869;29;20529;-67
2024/01/05 04:57:13;;;;;;;5.90;3.83;;;9.90;99.90;;;;;;4898688;29;20836;-65
2024/01/05 04:59:41;;;;;;;6.87;3.47;;;10.10;99.90;;;;;;4898942;29;20212;-67
2024/01/05 05:02:08;;;;;;;3.67;3.30;;;10.10;99.90;;;;;;4892969;29;20181;-67
2024/01/05 05:04:33;;;;;;;6.20;3.47;;;10.10;99.90;;;;;;4881273;29;20442;-67
2024/01/05 05:06:59;;;;;;;4.27;3.23;;;10.10;99.90;;;;;;4881723;29;20453;-68
2024/01/05 05:09:25;;;;;;;4.67;4.13;;;10.00;99.90;;;;;;4881605;29;20186;-68
2024/01/05 05:11:51;;;;;;;3.83;3.50;;;10.00;99.90;;;;;;4881140;29;20529;-67
2024/01/05 05:14:16;;;;;;;4.57;3.07;;;9.90;99.90;;;;;;4881570;29;20208;-67
2024/01/05 05:16:42;;;;;;;3.93;3.73;;;9.90;99.90;;;;;;4898926;29;20581;-67
2024/01/05 05:19:08;;;;;;;8.70;3.80;;;10.10;99.90;;;;;;4900259;29;20221;-68
2024/01/05 05:21:34;;;;;;;3.50;3.20;;;10.20;99.90;;;;;;4898834;29;20187;-67
2024/01/05 05:23:59;;;;;;;5.10;4.70;;;10.30;99.90;;;;;;4899093;29;20229;-67
2024/01/05 05:26:25;;;;;;;7.60;4.20;;;10.40;99.90;;;;;;4899424;29;20418;-67
2024/01/05 05:28:51;;;;;;;7.20;3.80;;;10.50;99.90;;;;;;4878299;29;20243;-67
2024/01/05 05:31:16;;;;;;;6.13;3.87;;;10.60;99.90;;;;;;4890524;29;20456;-68
2024/01/05 05:33:42;;;;;;;4.30;3.90;;;10.70;99.90;;;;;;4864569;29;20189;-68
2024/01/05 05:36:08;;;;;;;3.90;3.30;;;10.40;99.90;;;;;;4864447;29;20224;-67
2024/01/05 05:38:33;;;;;;;3.60;3.17;;;10.40;99.90;;;;;;4890693;29;20307;-66
2024/01/05 05:40:59;;;;;;;3.40;3.10;;;10.60;99.90;;;;;;4899133;29;20553;-68
2024/01/05 05:43:25;;;;;;;3.60;3.30;;;10.30;99.90;;;;;;4899872;29;20172;-68
2024/01/05 05:45:51;;;;;;;4.80;4.10;;;10.30;99.90;;;;;;4894761;29;20195;-66
2024/01/05 05:48:16;;;;;;;4.07;3.67;;;10.20;99.90;;;;;;4881081;29;20187;-67
2024/01/05 05:50:42;;;;;;;4.00;3.70;;;10.30;99.90;;;;;;4864116;29;21914;-66
2024/01/05 05:53:09;;;;;;;5.00;3.07;;;10.20;99.90;;;;;;4886329;29;20244;-67
2024/01/05 05:55:35;;;;;;;5.70;2.97;;;10.20;99.90;;;;;;4882199;29;20242;-66
2024/01/05 05:58:01;;;;;;;5.27;3.80;;;10.20;99.90;;;;;;4864295;29;20456;-67
2024/01/05 06:00:27;;;;;;;5.67;3.40;;;10.40;99.90;;;;;;4881650;29;20231;-66
2024/01/05 06:02:52;;;;;;;9.23;4.73;;;10.50;99.90;;;;;;4883393;29;20235;-65
2024/01/05 06:05:18;;;;;;;3.07;2.80;;;10.50;99.90;;;;;;4880812;29;20187;-67
2024/01/05 06:07:44;;;;;;;4.63;3.30;;;10.30;99.90;;;;;;4880203;29;20184;-69
2024/01/05 06:10:10;;;;;;;3.87;3.03;;;10.30;99.90;;;;;;4880719;29;20208;-67
2024/01/05 06:12:36;;;;;;;7.30;3.43;;;10.40;99.90;;;;;;4879836;29;20915;-67
2024/01/05 06:15:02;;;;;;;4.73;4.13;;;10.30;99.90;;;;;;4881569;29;20340;-67
2024/01/05 06:17:28;;;;;;;3.50;3.00;;;10.50;99.90;;;;;;4880593;29;20184;-66
2024/01/05 06:19:54;;;;;;;2.60;2.40;;;10.60;99.90;;;;;;4881452;29;20523;-66
2024/01/05 06:22:19;;;;;;;5.17;4.70;;;10.70;99.90;;;;;;4896083;29;20197;-66
2024/01/05 06:24:46;;;;;;;3.93;3.37;;;10.70;99.90;;;;;;4895564;29;20217;-66
2024/01/05 06:27:12;;;;;;;3.97;3.40;;;10.50;99.90;;;;;;4898458;29;20183;-65
2024/01/05 06:29:38;;;;;;;3.97;3.47;;;10.70;99.90;;;;;;4884215;29;20436;-65
2024/01/05 06:32:04;;;;;;;4.90;3.40;;;10.60;99.90;;;;;;4889201;29;20792;-66
2024/01/05 06:34:30;;;;;;;4.87;4.40;;;10.60;99.90;;;;;;4881144;29;20211;-66
2024/01/05 06:36:56;;;;;;;5.90;4.10;;;10.50;99.90;;;;;;4862998;29;20909;-67
2024/01/05 06:39:22;;;;;;;8.70;4.30;;;10.50;99.90;;;;;;4880267;29;20187;-67
2024/01/05 06:41:48;;;;;;;4.93;3.73;;;10.60;99.90;;;;;;4896983;29;20429;-67
2024/01/05 06:44:13;;;;;;;5.10;4.70;;;10.50;99.90;;;;;;4898449;29;20507;-67
2024/01/05 06:46:39;;;;;;;2.50;2.30;;;10.60;99.90;;;;;;4897729;29;20175;-67
2024/01/05 06:49:05;;;;;;;5.03;2.90;;;10.60;99.90;;;;;;4898701;29;20202;-66
2024/01/05 06:51:40;;;;;;;5.77;3.00;;;10.80;99.90;;;;;;4891125;29;20194;-66
2024/01/05 06:54:06;;;;;;;3.83;3.40;;;10.80;99.90;;;;;;4880216;29;20193;-66
2024/01/05 06:56:32;;;;;;;5.03;2.20;;;10.80;99.90;;;;;;4879427;29;20460;-66
2024/01/05 06:59:02;;;;;;;4.07;3.80;;;10.80;99.90;;;;;;4884057;29;20452;-66
2024/01/05 07:01:28;;;;;;;4.80;3.70;;;10.90;99.90;;;;;;4895241;29;20431;-66
2024/01/05 07:03:54;;;;;;;5.97;3.97;;;10.70;99.90;;;;;;4896236;29;20504;-65
2024/01/05 07:06:20;;;;;;;5.90;5.30;;;10.80;99.90;;;;;;4897473;29;20194;-65
2024/01/05 07:08:46;;;;;;;5.10;3.70;;;10.90;99.90;;;;;;4894568;29;20183;-66
2024/01/05 07:11:24;;;;;;;3.40;2.60;;;10.80;99.90;;;;;;4886658;29;20658;-67
2024/01/05 07:13:51;;;;;;;4.17;3.83;;;10.70;99.90;;;;;;4895198;29;20543;-67
2024/01/05 07:16:18;;;;;;;4.47;3.10;;;10.70;99.90;;;;;;4895895;29;20858;-66
2024/01/05 07:18:44;;;;;;;4.60;3.57;;;10.70;99.90;;;;;;4876699;29;20821;-67
2024/01/05 07:21:10;;;;;;;5.30;3.50;;;10.40;99.90;;;;;;4893094;29;20575;-68
2024/01/05 07:23:36;;;;;;;6.10;5.07;;;10.50;99.90;;;;;;4882910;29;20983;-62
2024/01/05 07:26:02;;;;;;;3.90;3.40;;;10.60;99.90;;;;;;4883869;29;20219;-67
2024/01/05 07:28:27;;;;;;;7.07;4.43;;;10.70;99.90;;;;;;4886102;29;20476;-67
2024/01/05 07:30:53;;;;;;;4.57;3.80;;;10.80;99.90;;;;;;4888429;29;20186;-67
2024/01/05 07:33:19;;;;;;;3.37;3.07;;;10.60;99.90;;;;;;4897720;29;20187;-66
2024/01/05 07:35:45;;;;;;;4.70;4.40;;;10.80;99.90;;;;;;4868200;29;20866;-66
2024/01/05 07:38:11;;;;;;;3.73;3.40;;;10.80;99.90;;;;;;4878463;29;20179;-66
2024/01/05 07:40:37;;;;;;;4.70;2.57;;;10.70;99.90;;;;;;4893713;29;20180;-59
2024/01/05 07:43:03;;;;;;;6.50;3.00;;;10.60;99.90;;;;;;4888240;29;20568;-67
2024/01/05 07:45:28;;;;;;;3.53;2.77;;;10.70;99.90;;;;;;4896373;29;20447;-68
2024/01/05 07:47:58;;;;;;;5.63;3.57;;;10.80;99.90;;;;;;4894243;29;20475;-66
2024/01/05 07:50:26;;;;;;;4.80;3.37;;;10.70;99.90;;;;;;4884242;29;20186;-66
2024/01/05 07:52:52;;;;;;;5.20;4.77;;;10.80;99.90;;;;;;4893012;29;20489;-66
2024/01/05 07:55:17;;;;;;;5.67;3.93;;;10.80;99.90;;;;;;4895165;29;20484;-66
2024/01/05 07:57:43;;;;;;;4.20;3.90;;;10.80;99.90;;;;;;4894700;29;20186;-66
2024/01/05 08:00:10;;;;;;;3.43;3.23;;;10.80;99.90;;;;;;4880241;29;20214;-66
2024/01/05 08:02:36;;;;;;;4.57;2.80;;;10.80;99.90;;;;;;4883904;29;20425;-66
2024/01/05 08:05:02;;;;;;;3.80;3.50;;;10.90;99.90;;;;;;4880111;29;20522;-68
2024/01/05 08:07:28;;;;;;;4.40;4.10;;;10.90;99.90;;;;;;4884552;29;20932;-65
2024/01/05 08:09:54;;;;;;;3.27;2.93;;;10.90;99.90;;;;;;4891641;29;20447;-66
2024/01/05 08:12:20;;;;;;;4.00;2.90;;;10.90;99.90;;;;;;4880359;29;20183;-66
2024/01/05 08:14:46;;;;;;;2.47;2.30;;;10.90;99.90;;;;;;4889091;29;20454;-65
2024/01/05 08:17:11;;;;;;;3.70;3.40;;;10.90;99.90;;;;;;4893089;29;20437;-66
2024/01/05 08:19:37;;;;;;;4.37;3.13;;;10.90;99.90;;;;;;4883547;29;20191;-66
2024/01/05 08:22:03;;;;;;;3.83;3.57;;;11.00;99.90;;;;;;4885760;29;20195;-65
2024/01/05 08:24:29;;;;;;;2.70;2.60;;;10.90;99.90;;;;;;4882853;29;20194;-65
2024/01/05 08:26:55;;;;;;;5.40;5.10;;;11.00;99.90;;;;;;4891877;29;20187;-65
2024/01/05 08:29:22;;;;;;;4.73;4.33;;;10.90;99.90;;;;;;4892523;29;20179;-65
2024/01/05 08:31:49;;;;;;;4.33;3.93;;;10.80;99.90;;;;;;4878921;29;20435;-66
2024/01/05 08:34:15;;;;;;;4.67;4.27;;;10.80;99.90;;;;;;4892294;29;20438;-65
2024/01/05 08:36:41;;;;;;;4.00;3.60;;;10.80;99.90;;;;;;4862750;29;20936;-66
2024/01/05 08:39:07;;;;;;;5.10;4.70;;;10.80;99.90;;;;;;4895466;29;20443;-61
2024/01/05 08:41:32;;;;;;;4.33;3.20;;;10.90;99.90;;;;;;4873067;29;20211;-60
2024/01/05 08:43:58;;;;;;;3.50;2.97;;;11.30;99.90;;;;;;4889794;29;20184;-60
2024/01/05 08:46:27;;;;;;;5.10;3.93;;;11.80;99.90;;;;;;4888126;29;20187;-62
2024/01/05 08:48:53;;;;;;;4.73;4.03;;;12.00;99.90;;;;;;4891451;29;20192;-62
2024/01/05 08:51:19;;;;;;;4.70;4.30;;;12.20;99.90;;;;;;4890142;29;20432;-61
2024/01/05 08:53:45;;;;;;;4.43;4.03;;;12.60;99.90;;;;;;4886863;29;20943;-61
2024/01/05 08:56:11;;;;;;;5.13;4.17;;;12.90;99.90;;;;;;4892743;29;20580;-62
2024/01/05 08:58:37;;;;;;;3.73;3.50;;;13.10;99.90;;;;;;4892790;29;20885;-71
2024/01/05 09:01:03;;;;;;;5.90;5.50;;;13.10;99.90;;;;;;4895529;29;20763;-70
2024/01/05 09:03:28;;;;;;;2.93;2.73;;;12.90;99.90;;;;;;4879280;29;20234;-70
2024/01/05 09:05:54;;;;;;;3.50;2.97;;;12.70;99.90;;;;;;4895452;29;20222;-69
2024/01/05 09:08:20;;;;;;;7.27;6.07;;;12.50;99.90;;;;;;4887568;29;20278;-78
2024/01/05 09:10:46;;;;;;;3.10;2.50;;;12.10;99.90;;;;;;4889684;29;20183;-71
2024/01/05 09:13:11;;;;;;;4.10;2.40;;;12.00;99.90;;;;;;4888065;29;20220;-70
2024/01/05 09:15:37;;;;;;;4.60;4.30;;;11.90;99.90;;;;;;4901992;29;20210;-72
2024/01/05 09:18:05;;;;;;;3.80;3.50;;;12.00;99.90;;;;;;4901067;29;20211;-70
2024/01/05 09:20:30;;;;;;;3.50;3.30;;;12.30;99.90;;;;;;4896692;29;20187;-70
2024/01/05 09:22:56;;;;;;;4.77;2.50;;;12.70;99.90;;;;;;4898444;29;20450;-72
2024/01/05 09:25:22;;;;;;;4.13;3.70;;;13.40;99.90;;;;;;4900111;29;20218;-71
2024/01/05 09:27:48;;;;;;;3.17;2.97;;;14.00;99.50;;;;;;4899334;29;20189;-69
2024/01/05 09:30:14;;;;;;;3.00;2.90;;;14.40;98.20;;;;;;4883441;29;20533;-70
2024/01/05 09:32:40;;;;;;;2.50;2.40;;;14.10;97.20;;;;;;4898840;29;20551;-71
2024/01/05 09:35:08;;;;;;;4.93;4.73;;;13.90;97.90;;;;;;4882665;29;20790;-71
2024/01/05 09:37:35;;;;;;;2.83;2.60;;;13.60;97.60;;;;;;4900086;29;20187;-70
2024/01/05 09:40:02;;;;;;;5.47;5.13;;;13.10;98.40;;;;;;4881811;29;20429;-70
2024/01/05 09:42:28;;;;;;;3.10;2.80;;;12.90;99.30;;;;;;4900290;29;20442;-70
2024/01/05 09:44:55;;;;;;;5.93;5.70;;;12.50;99.90;;;;;;4899069;29;20418;-70
2024/01/05 09:47:21;;;;;;;5.00;4.60;;;12.30;99.90;;;;;;4898600;29;20442;-71
2024/01/05 09:49:51;;;;;;;2.30;2.20;;;12.20;99.90;;;;;;4896541;29;20428;-70
2024/01/05 09:52:20;;;;;;;5.80;5.40;;;12.10;99.90;;;;;;4898717;29;20835;-71
2024/01/05 09:54:46;;;;;;;4.47;4.23;;;12.00;99.90;;;;;;4898746;29;20523;-70
2024/01/05 09:57:17;;;;;;;1.83;1.70;;;11.80;99.90;;;;;;4899841;29;20438;-71
2024/01/05 09:59:46;;;;;;;3.10;3.00;;;11.80;99.90;;;;;;4899778;29;20416;-71
2024/01/05 10:02:17;;;;;;;3.17;2.97;;;11.60;99.90;;;;;;4882713;29;20415;-71
2024/01/05 10:04:43;;;;;;;2.90;2.70;;;11.50;99.90;;;;;;4897993;29;20464;-71
2024/01/05 10:07:09;;;;;;;2.70;2.50;;;11.40;99.90;;;;;;4898967;29;20449;-71
2024/01/05 10:09:49;;;;;;;2.93;2.83;;;11.50;99.90;;;;;;4899711;29;20998;-71
2024/01/05 10:12:15;;;;;;;2.90;2.70;;;11.50;99.90;;;;;;4899100;29;20265;-70
2024/01/05 10:14:40;;;;;;;2.70;2.60;;;11.60;99.90;;;;;;4899272;29;20550;-71
2024/01/05 10:17:10;;;;;;;2.63;2.50;;;11.50;99.90;;;;;;4898504;29;20443;-71
2024/01/05 10:19:37;;;;;;;2.50;2.40;;;11.50;99.90;;;;;;4898257;29;20251;-71
2024/01/05 10:22:10;;;;;;;2.40;2.30;;;11.50;99.90;;;;;;4881819;29;20445;-71
2024/01/05 10:24:37;;;;;;;2.20;2.20;;;11.80;99.90;;;;;;4882134;29;20460;-71
2024/01/05 10:27:06;;;;;;;2.63;2.53;;;12.50;99.50;;;;;;4898625;29;20419;-71
2024/01/05 10:29:33;;;;;;;3.00;2.90;;;13.00;98.10;;;;;;4899231;29;20430;-70
2024/01/05 10:32:19;;;;;;;2.90;2.70;;;13.70;97.10;;;;;;4898504;29;20484;-70
2024/01/05 10:34:48;;;;;;;3.17;3.07;;;14.40;94.70;;;;;;4898996;29;20485;-70
2024/01/05 10:37:18;;;;;;;2.20;2.20;;;14.50;93.20;;;;;;4898975;29;20627;-70
2024/01/05 10:39:48;;;;;;;2.50;2.30;;;14.10;92.60;;;;;;4898393;29;20413;-69
2024/01/05 10:42:21;;;;;;;2.70;2.60;;;13.90;93.50;;;;;;4898669;29;20420;-70
2024/01/05 10:44:52;;;;;;;2.80;2.70;;;13.70;93.70;;;;;;4898559;29;20465;-62
2024/01/05 10:47:20;;;;;;;4.73;4.60;;;13.60;94.20;;;;;;4897660;29;20442;-72
2024/01/05 10:49:48;;;;;;;1.97;1.97;;;13.30;94.30;;;;;;4898588;29;20419;-71
2024/01/05 10:52:19;;;;;;;4.83;4.50;;;13.00;94.50;;;;;;4898417;29;20778;-71
2024/01/05 10:54:46;;;;;;;2.60;2.40;;;12.70;94.70;;;;;;4898414;29;20632;-70
2024/01/05 10:57:14;;;;;;;2.87;2.73;;;12.50;95.10;;;;;;4898075;29;20502;-71
2024/01/05 10:59:48;;;;;;;2.47;2.47;;;12.40;96.10;;;;;;4898538;29;20522;-71
2024/01/05 11:02:41;;;;;;;2.20;2.10;;;12.20;95.80;;;;;;4898230;29;20405;-70
2024/01/05 11:05:13;;;;;;;2.10;2.00;;;12.10;96.30;;;;;;4886545;29;20535;-70
2024/01/05 11:07:41;;;;;;;2.33;2.33;;;12.10;96.60;;;;;;4897880;29;20552;-71
2024/01/05 11:10:28;;;;;;;1.20;1.20;;;12.00;97.00;;;;;;4897776;29;20452;-71
2024/01/05 11:13:32;;;;;;;2.60;2.60;;;12.00;97.60;;;;;;4881151;29;20523;-70
2024/01/05 11:16:22;;;;;;;2.70;2.53;;;11.80;97.00;;;;;;4897643;29;20470;-71
2024/01/05 11:19:09;;;;;;;2.50;2.40;;;11.70;97.40;;;;;;4898231;29;20422;-71
2024/01/05 11:21:56;;;;;;;2.80;2.70;;;11.80;97.70;;;;;;4898308;29;20404;-70
2024/01/05 11:24:24;;;;;;;2.27;2.17;;;11.70;97.40;;;;;;4897834;29;20442;-70
2024/01/05 11:26:50;;;;;;;2.20;2.20;;;11.60;96.60;;;;;;4897821;29;20428;-63
2024/01/05 11:29:44;;;;;;;1.87;1.77;;;11.50;96.40;;;;;;4896444;29;20427;-69
2024/01/05 11:32:42;;;;;;;2.00;1.90;;;11.50;97.00;;;;;;4897059;29;20679;-69
2024/01/05 11:35:39;;;;;;;4.83;4.73;;;11.50;96.80;;;;;;4897179;29;20546;-72
2024/01/05 11:38:24;;;;;;;1.70;1.70;;;11.40;96.50;;;;;;4897404;29;20412;-70
2024/01/05 11:40:50;;;;;;;1.67;1.57;;;11.30;96.60;;;;;;4897883;29;20401;-70
2024/01/05 11:43:28;;;;;;;4.50;4.40;;;11.40;97.00;;;;;;4881278;29;20464;-70
2024/01/05 11:45:54;;;;;;;3.47;3.37;;;11.30;97.30;;;;;;4897475;29;20431;-69
2024/01/05 11:48:35;;;;;;;1.90;1.90;;;11.30;97.20;;;;;;4881157;29;20432;-70
2024/01/05 11:51:10;;;;;;;3.50;3.40;;;11.30;97.60;;;;;;4896999;29;20205;-70
2024/01/05 11:53:36;;;;;;;2.73;2.63;;;11.30;97.10;;;;;;4897708;29;20420;-71
2024/01/05 11:56:07;;;;;;;4.33;4.23;;;11.30;96.90;;;;;;4879972;29;20507;-70
2024/01/05 11:58:38;;;;;;;1.70;1.70;;;11.30;96.80;;;;;;4896628;29;20439;-70
2024/01/05 12:01:12;;;;;;;2.07;2.00;;;11.20;97.10;;;;;;4897067;29;20511;-69
2024/01/05 12:03:39;;;;;;;3.57;3.47;;;11.20;97.40;;;;;;4897486;29;20418;-70
2024/01/05 12:06:06;;;;;;;2.67;2.57;;;11.30;97.20;;;;;;4897255;29;20451;-70
2024/01/05 12:08:33;;;;;;;2.00;1.90;;;11.20;97.40;;;;;;4897562;29;20413;-71
2024/01/05 12:11:02;;;;;;;3.80;3.70;;;11.30;97.40;;;;;;4897208;29;20435;-69
2024/01/05 12:13:30;;;;;;;2.50;2.50;;;11.30;97.40;;;;;;4880821;29;20516;-72
2024/01/05 12:16:07;;;;;;;2.60;2.50;;;11.30;97.80;;;;;;4896780;29;20493;-70
2024/01/05 12:18:46;;;;;;;2.10;2.00;;;11.40;97.80;;;;;;4897531;29;20414;-70
2024/01/05 12:21:17;;;;;;;2.00;2.00;;;11.40;97.90;;;;;;4896964;29;20464;-71
2024/01/05 12:23:51;;;;;;;2.00;1.90;;;11.40;97.90;;;;;;4897555;29;20399;-71
2024/01/05 12:26:18;;;;;;;2.30;2.30;;;11.40;97.90;;;;;;4896540;29;20781;-71
2024/01/05 12:28:45;;;;;;;2.50;2.50;;;11.40;97.40;;;;;;4896459;29;20442;-71
2024/01/05 12:31:12;;;;;;;2.77;2.60;;;11.30;97.60;;;;;;4880132;29;20400;-72
2024/01/05 12:33:39;;;;;;;2.20;2.20;;;11.30;97.70;;;;;;4897060;29;20975;-71
2024/01/05 12:36:09;;;;;;;2.50;2.40;;;11.30;97.30;;;;;;4896762;29;20460;-71
2024/01/05 12:38:35;;;;;;;2.57;2.40;;;11.30;97.10;;;;;;4880743;29;20503;-70
2024/01/05 12:41:20;;;;;;;2.43;2.33;;;11.40;97.70;;;;;;4896745;29;20409;-71
2024/01/05 12:43:49;;;;;;;2.60;2.50;;;11.30;97.20;;;;;;4898963;29;20413;-71
2024/01/05 12:46:15;;;;;;;2.70;2.60;;;11.30;97.40;;;;;;4899174;29;20448;-71
2024/01/05 12:48:41;;;;;;;4.40;4.20;;;11.20;97.10;;;;;;4899815;29;20422;-70